Time;durP1;ratioP1;P1;durP2;ratioP2;P2;SDS_P1;SDS_P2;PMS_P1;PMS_P2;Temp;Humidity;BMP_temperature;BMP_pressure;BME280_temperature;BME280_humidity;BME280_pressure;Samples;Min_cycle;Max_cycle;Signal;HPM_P1;HPM_P2
2022/07/30 00:00:12;;;;;;;5.85;2.70;;;;;;;18.42;67.09;100947.91;4826068;29;20038;-54
2022/07/30 00:02:38;;;;;;;7.93;2.90;;;;;;;18.41;66.66;100938.13;4828647;29;20095;-53
2022/07/30 00:05:04;;;;;;;6.45;3.25;;;;;;;18.45;66.55;100934.66;4834770;29;20053;-54
2022/07/30 00:07:31;;;;;;;6.43;3.13;;;;;;;18.52;66.28;100937.16;4838729;29;20033;-52
2022/07/30 00:09:57;;;;;;;5.68;2.80;;;;;;;18.72;65.89;100940.09;4843884;29;20026;-53
2022/07/30 00:12:23;;;;;;;5.47;2.65;;;;;;;18.44;66.36;100934.94;4844996;29;20098;-52
2022/07/30 00:14:49;;;;;;;8.32;2.70;;;;;;;18.19;67.21;100936.28;4844228;29;20045;-52
2022/07/30 00:17:15;;;;;;;6.07;2.42;;;;;;;18.30;66.86;100939.09;4844480;29;20084;-52
2022/07/30 00:19:41;;;;;;;5.40;3.03;;;;;;;18.08;67.59;100939.94;4844134;29;20088;-53
2022/07/30 00:22:08;;;;;;;6.97;2.50;;;;;;;18.18;67.65;100931.13;4844441;29;20423;-54
2022/07/30 00:24:34;;;;;;;5.93;2.55;;;;;;;18.15;67.67;100939.75;4844457;29;20029;-53
2022/07/30 00:27:00;;;;;;;8.75;2.72;;;;;;;18.10;67.77;100939.69;4844781;29;20073;-52
2022/07/30 00:29:26;;;;;;;8.07;3.00;;;;;;;17.88;68.82;100939.72;4843890;29;20033;-53
2022/07/30 00:31:52;;;;;;;6.82;3.70;;;;;;;17.87;69.66;100938.06;4844300;29;20041;-49
2022/07/30 00:34:19;;;;;;;6.55;3.10;;;;;;;17.92;69.91;100943.53;4844047;29;20395;-52
2022/07/30 00:36:45;;;;;;;12.27;3.55;;;;;;;17.86;70.03;100937.25;4843926;29;20026;-52
2022/07/30 00:39:11;;;;;;;9.15;3.30;;;;;;;17.66;70.17;100935.09;4843902;29;20038;-52
2022/07/30 00:42:02;;;;;;;9.68;3.78;;;;;;;17.67;70.46;100941.31;4843993;29;20041;-53
2022/07/30 00:44:29;;;;;;;7.95;3.40;;;;;;;17.69;70.31;100939.97;4835145;29;20026;-53
2022/07/30 00:46:56;;;;;;;11.45;3.53;;;;;;;17.57;70.93;100941.97;4824018;29;20038;-53
2022/07/30 00:49:22;;;;;;;7.18;2.95;;;;;;;17.55;70.85;100943.31;4822593;29;20125;-53
2022/07/30 00:51:49;;;;;;;12.75;3.55;;;;;;;17.40;71.19;100938.50;4821166;29;20042;-54
2022/07/30 00:54:16;;;;;;;7.75;3.25;;;;;;;17.34;71.11;100950.31;4824281;29;20508;-53
2022/07/30 00:56:42;;;;;;;5.88;2.92;;;;;;;17.29;71.43;100925.88;4824889;29;20091;-53
2022/07/30 00:59:09;;;;;;;12.07;3.90;;;;;;;17.49;71.71;100952.41;4824466;29;20416;-54
2022/07/30 01:01:36;;;;;;;9.70;3.55;;;;;;;17.44;70.97;100950.47;4824995;29;20031;-53
2022/07/30 01:04:03;;;;;;;7.95;3.85;;;;;;;17.25;71.82;100949.09;4823695;29;20030;-52
2022/07/30 01:06:29;;;;;;;11.93;3.95;;;;;;;17.13;72.78;100952.69;4823053;29;20045;-53
2022/07/30 01:08:55;;;;;;;9.13;3.13;;;;;;;17.04;73.26;100948.75;4824565;29;20034;-55
2022/07/30 01:11:30;;;;;;;11.05;3.50;;;;;;;16.96;72.89;100941.06;4824540;29;20031;-56
2022/07/30 01:13:57;;;;;;;8.70;3.42;;;;;;;16.96;73.17;100943.78;4824931;29;20034;-56
2022/07/30 01:16:24;;;;;;;9.13;3.25;;;;;;;16.97;72.83;100940.00;4824599;29;20034;-55
2022/07/30 01:21:40;;;;;;;8.02;2.85;;;;;;;17.01;72.91;100949.28;4825631;29;20053;-55
2022/07/30 01:24:21;;;;;;;13.10;4.15;;;;;;;16.95;72.96;100939.44;4824567;29;20521;-53
2022/07/30 01:26:49;;;;;;;8.60;3.30;;;;;;;16.62;74.20;100941.00;4824603;29;20542;-56
2022/07/30 01:29:17;;;;;;;9.18;3.28;;;;;;;16.81;74.12;100949.75;4824565;29;20034;-55
2022/07/30 01:31:45;;;;;;;7.57;3.03;;;;;;;16.77;74.14;100942.38;4824831;29;20400;-53
2022/07/30 01:34:13;;;;;;;7.47;2.78;;;;;;;16.77;73.57;100936.97;4824427;29;20050;-55
2022/07/30 01:36:41;;;;;;;7.18;3.47;;;;;;;16.71;74.39;100948.75;4824859;29;20109;-54
2022/07/30 01:39:08;;;;;;;7.13;3.08;;;;;;;16.67;74.48;100943.00;4824568;29;20109;-56
2022/07/30 01:41:35;;;;;;;12.23;3.22;;;;;;;16.74;74.13;100951.78;4823114;29;20481;-55
2022/07/30 01:44:03;;;;;;;6.28;3.10;;;;;;;16.72;74.57;100947.72;4824630;29;20050;-56
2022/07/30 01:46:30;;;;;;;9.15;3.10;;;;;;;16.55;74.72;100953.06;4824223;29;20030;-56
2022/07/30 01:48:59;;;;;;;8.77;3.22;;;;;;;16.50;75.14;100956.47;4824339;29;20042;-55
2022/07/30 01:51:27;;;;;;;7.00;2.90;;;;;;;16.69;74.34;100951.66;4825121;29;20476;-56
2022/07/30 01:53:55;;;;;;;9.93;2.72;;;;;;;16.31;75.26;100955.84;4824766;29;20465;-56
2022/07/30 01:56:24;;;;;;;8.15;3.00;;;;;;;16.44;75.04;100957.44;4840277;29;20579;-56
2022/07/30 01:58:53;;;;;;;4.88;2.65;;;;;;;16.38;75.18;100958.41;4842238;29;20037;-55
2022/07/30 02:01:19;;;;;;;8.15;2.45;;;;;;;16.42;74.89;100964.97;4820304;29;20034;-56
2022/07/30 02:03:45;;;;;;;7.13;3.10;;;;;;;16.43;75.32;100965.78;4835415;29;20058;-54
2022/07/30 02:06:18;;;;;;;4.18;2.35;;;;;;;16.26;75.80;100966.53;4837233;29;20053;-54
2022/07/30 02:08:53;;;;;;;8.65;2.70;;;;;;;16.00;76.60;100965.22;4833780;29;20087;-55
2022/07/30 02:14:31;;;;;;;9.00;2.70;;;;;;;15.99;76.35;100978.94;4860980;29;20048;-56
2022/07/30 02:17:00;;;;;;;6.13;2.47;;;;;;;16.10;76.25;100978.94;4850476;29;20041;-54
2022/07/30 02:19:33;;;;;;;6.05;2.30;;;;;;;16.19;76.21;100978.56;4845683;29;20049;-57
2022/07/30 02:22:11;;;;;;;5.55;2.60;;;;;;;15.97;76.84;100990.00;4828116;29;20363;-56
2022/07/30 02:24:40;;;;;;;8.27;3.40;;;;;;;15.94;77.10;100982.38;4841087;29;20179;-56
2022/07/30 02:27:13;;;;;;;5.80;2.28;;;;;;;15.91;77.37;100993.66;4848098;23;20361;-56
2022/07/30 02:29:41;;;;;;;6.35;2.22;;;;;;;15.79;78.04;100992.84;4841604;29;20051;-56
2022/07/30 02:32:11;;;;;;;5.53;2.17;;;;;;;15.79;77.97;101001.75;4841786;29;20030;-56
2022/07/30 02:34:40;;;;;;;6.03;2.25;;;;;;;15.76;78.43;101002.22;4841905;29;20388;-56
2022/07/30 02:37:10;;;;;;;6.35;2.20;;;;;;;15.77;78.15;101008.47;4841703;29;20531;-54
2022/07/30 02:39:38;;;;;;;3.78;2.00;;;;;;;15.72;78.16;101008.34;4827559;29;20034;-55
2022/07/30 02:42:08;;;;;;;8.70;2.55;;;;;;;15.80;78.08;101010.69;4821865;29;20109;-53
2022/07/30 02:44:36;;;;;;;3.70;1.90;;;;;;;15.69;78.27;101006.09;4822215;29;20023;-54
2022/07/30 02:47:03;;;;;;;4.45;2.55;;;;;;;15.65;78.62;101004.94;4825500;29;20034;-54
2022/07/30 02:49:35;;;;;;;8.43;2.65;;;;;;;15.61;78.86;101009.97;4829693;29;20053;-54
2022/07/30 02:52:03;;;;;;;5.07;2.78;;;;;;;15.51;78.97;101017.81;4829350;29;20049;-55
2022/07/30 02:54:31;;;;;;;7.47;2.28;;;;;;;15.45;79.35;101021.47;4837242;29;20058;-53
2022/07/30 02:57:00;;;;;;;5.57;2.13;;;;;;;15.36;79.95;101018.28;4850964;29;20158;-54
2022/07/30 02:59:30;;;;;;;4.90;2.47;;;;;;;15.57;79.02;101025.78;4831461;29;20473;-53
2022/07/30 03:01:58;;;;;;;7.60;2.58;;;;;;;15.55;78.93;101027.91;4838073;29;20120;-53
2022/07/30 03:04:26;;;;;;;6.25;2.40;;;;;;;15.54;79.18;101028.94;4840772;29;20065;-54
2022/07/30 03:06:53;;;;;;;5.28;2.35;;;;;;;15.55;79.04;101038.69;4826607;29;20480;-54
2022/07/30 03:09:21;;;;;;;4.15;2.15;;;;;;;15.46;79.49;101033.88;4830453;29;20034;-53
2022/07/30 03:11:50;;;;;;;9.45;3.25;;;;;;;15.55;79.44;101027.91;4837006;29;20166;-53
2022/07/30 03:14:16;;;;;;;9.70;2.55;;;;;;;15.53;79.57;101035.41;4833869;29;20028;-54
2022/07/30 03:16:47;;;;;;;6.85;2.60;;;;;;;15.47;79.55;101033.63;4822589;29;20036;-54
2022/07/30 03:19:16;;;;;;;7.15;2.30;;;;;;;15.45;79.37;101032.25;4822265;29;20038;-53
2022/07/30 03:21:45;;;;;;;6.88;2.20;;;;;;;15.42;79.00;101036.22;4822920;29;20037;-53
2022/07/30 03:24:13;;;;;;;7.10;2.80;;;;;;;15.37;79.53;101041.47;4823387;29;20031;-51
2022/07/30 03:26:41;;;;;;;3.90;2.00;;;;;;;15.33;79.72;101037.63;4823404;29;20038;-53
2022/07/30 03:29:09;;;;;;;5.65;2.40;;;;;;;15.27;80.27;101027.78;4822923;29;20046;-54
2022/07/30 03:31:37;;;;;;;11.18;2.22;;;;;;;15.27;80.12;101033.16;4823189;29;20042;-52
2022/07/30 03:34:06;;;;;;;8.05;2.05;;;;;;;15.27;80.48;101034.00;4823145;29;20058;-53
2022/07/30 03:36:33;;;;;;;5.38;2.03;;;;;;;15.23;80.90;101045.47;4823110;29;20037;-53
2022/07/30 03:39:01;;;;;;;6.72;2.75;;;;;;;15.30;80.84;101049.69;4806615;29;20042;-54
2022/07/30 03:41:28;;;;;;;4.80;2.17;;;;;;;15.35;80.12;101042.78;4823245;29;20031;-54
2022/07/30 03:43:55;;;;;;;6.38;2.33;;;;;;;15.37;80.43;101046.88;4823242;29;20030;-54
2022/07/30 03:46:22;;;;;;;4.35;2.30;;;;;;;15.29;81.04;101042.66;4822960;29;20031;-54
2022/07/30 03:48:48;;;;;;;6.68;2.50;;;;;;;15.37;80.49;101041.47;4822672;29;20519;-51
2022/07/30 03:51:16;;;;;;;4.57;2.42;;;;;;;15.41;80.13;101042.66;4822830;29;20047;-53
2022/07/30 03:53:44;;;;;;;5.63;2.22;;;;;;;15.36;80.55;101047.13;4822929;29;20031;-53
2022/07/30 03:56:11;;;;;;;5.80;2.20;;;;;;;15.37;80.36;101054.97;4822921;29;20041;-54
2022/07/30 03:58:38;;;;;;;6.60;2.17;;;;;;;15.36;80.26;101047.94;4823155;29;20030;-54
2022/07/30 04:01:04;;;;;;;5.80;2.40;;;;;;;15.45;80.26;101053.81;4823725;29;20027;-51
2022/07/30 04:03:32;;;;;;;5.15;2.13;;;;;;;15.38;80.36;101055.78;4822884;29;20429;-53
2022/07/30 04:05:59;;;;;;;7.80;2.03;;;;;;;15.48;79.65;101059.56;4821851;29;20129;-53
2022/07/30 04:08:26;;;;;;;4.68;1.77;;;;;;;15.56;79.40;101067.31;4822360;29;20087;-53
2022/07/30 04:10:53;;;;;;;3.47;1.80;;;;;;;15.60;79.55;101064.97;4822511;29;20367;-54
2022/07/30 04:13:19;;;;;;;5.05;1.60;;;;;;;15.75;78.72;101061.84;4822376;29;20037;-54
2022/07/30 04:15:53;;;;;;;4.80;1.40;;;;;;;15.76;78.64;101069.69;4822341;29;20038;-53
2022/07/30 04:18:21;;;;;;;3.80;1.63;;;;;;;15.79;77.90;101069.22;4821984;29;20066;-55
2022/07/30 04:20:49;;;;;;;2.35;1.75;;;;;;;15.88;77.17;101080.50;4822094;29;20137;-53
2022/07/30 04:23:16;;;;;;;2.75;1.10;;;;;;;15.75;77.47;101078.03;4822522;29;20023;-53
2022/07/30 04:25:43;;;;;;;2.85;1.92;;;;;;;15.88;77.07;101085.91;4822240;29;20041;-55
2022/07/30 04:28:10;;;;;;;2.08;1.30;;;;;;;15.92;76.83;101081.66;4822045;29;20167;-54
2022/07/30 04:30:37;;;;;;;2.92;1.13;;;;;;;15.99;76.75;101092.34;4822178;29;20034;-53
2022/07/30 04:33:04;;;;;;;2.45;1.20;;;;;;;15.85;76.96;101086.38;4823495;29;20070;-53
2022/07/30 04:35:31;;;;;;;2.97;1.10;;;;;;;16.00;76.45;101083.22;4822486;29;20476;-53
2022/07/30 04:37:59;;;;;;;1.40;0.82;;;;;;;15.96;76.15;101088.25;4822636;29;20471;-54
2022/07/30 04:40:25;;;;;;;1.60;1.10;;;;;;;15.98;76.22;101088.81;4827429;29;20041;-54
2022/07/30 04:42:51;;;;;;;1.50;0.88;;;;;;;15.92;76.31;101092.47;4841032;29;20515;-54
2022/07/30 04:45:21;;;;;;;1.10;0.88;;;;;;;15.94;76.58;101090.38;4843611;29;20041;-54
2022/07/30 04:47:47;;;;;;;2.17;0.95;;;;;;;16.10;75.75;101095.06;4843785;29;20038;-54
2022/07/30 04:50:15;;;;;;;2.17;0.98;;;;;;;16.07;75.81;101092.81;4843143;29;20037;-54
2022/07/30 04:52:43;;;;;;;1.80;0.82;;;;;;;16.15;75.32;101102.41;4843478;29;20029;-54
2022/07/30 04:55:10;;;;;;;5.35;1.10;;;;;;;16.08;75.51;101101.72;4843366;29;20151;-54
2022/07/30 04:57:39;;;;;;;2.30;1.10;;;;;;;16.01;75.84;101096.47;4843514;29;20060;-53
2022/07/30 05:00:06;;;;;;;1.02;0.63;;;;;;;16.11;75.93;101112.06;4843112;29;20080;-53
2022/07/30 05:02:36;;;;;;;1.10;0.60;;;;;;;16.06;75.56;101107.38;4843302;29;20026;-53
2022/07/30 05:05:04;;;;;;;1.25;0.90;;;;;;;16.14;75.69;101100.78;4843031;29;20439;-55
2022/07/30 05:07:31;;;;;;;2.38;0.98;;;;;;;16.15;75.54;101101.59;4843356;29;20073;-55
2022/07/30 05:09:58;;;;;;;1.17;0.80;;;;;;;16.28;75.37;101109.47;4843263;29;20042;-54
2022/07/30 05:12:36;;;;;;;2.33;1.30;;;;;;;16.33;75.00;101106.88;4843320;29;20041;-54
2022/07/30 05:15:04;;;;;;;2.17;0.90;;;;;;;16.17;75.21;101108.44;4843128;29;20041;-54
2022/07/30 05:17:31;;;;;;;2.60;0.80;;;;;;;16.12;75.63;101108.31;4843244;29;20109;-52
2022/07/30 05:19:57;;;;;;;1.70;0.63;;;;;;;16.02;76.10;101108.06;4842354;29;20025;-54
2022/07/30 05:22:26;;;;;;;1.85;0.60;;;;;;;16.19;75.91;101110.88;4843174;29;20030;-54
2022/07/30 05:24:52;;;;;;;3.10;0.90;;;;;;;16.11;76.12;101098.56;4842881;29;20030;-54
2022/07/30 05:27:19;;;;;;;1.40;0.80;;;;;;;16.07;76.28;101090.13;4842609;29;20127;-55
2022/07/30 05:29:46;;;;;;;2.17;0.77;;;;;;;16.07;76.43;101100.91;4842743;29;20555;-54
2022/07/30 05:32:12;;;;;;;1.40;0.73;;;;;;;16.06;76.34;101101.16;4842721;29;20061;-55
2022/07/30 05:34:39;;;;;;;1.48;0.63;;;;;;;16.03;75.72;101091.63;4842818;29;20068;-56
2022/07/30 05:37:05;;;;;;;2.13;0.80;;;;;;;16.06;75.69;101098.47;4842822;29;20065;-53
2022/07/30 05:39:31;;;;;;;2.13;0.95;;;;;;;15.94;76.25;101094.94;4842685;29;20030;-55
2022/07/30 05:41:57;;;;;;;1.17;0.75;;;;;;;16.06;75.76;101098.47;4825270;29;20030;-53
2022/07/30 05:44:24;;;;;;;1.67;0.60;;;;;;;16.10;75.74;101099.59;4824503;29;20495;-54
2022/07/30 05:46:51;;;;;;;1.83;0.90;;;;;;;16.04;76.02;101101.38;4834277;29;20053;-54
2022/07/30 05:49:17;;;;;;;1.42;0.52;;;;;;;16.11;76.01;101098.56;4842280;29;20383;-55
2022/07/30 05:51:43;;;;;;;2.42;0.70;;;;;;;16.14;75.38;101095.38;4842407;29;20094;-50
2022/07/30 05:54:09;;;;;;;1.40;0.65;;;;;;;16.07;75.63;101095.50;4852579;29;20040;-54
2022/07/30 05:56:36;;;;;;;1.05;0.70;;;;;;;16.17;75.50;101092.22;4860510;29;20174;-53
2022/07/30 05:59:03;;;;;;;1.50;0.60;;;;;;;16.02;76.25;101097.28;4860571;29;20069;-54
2022/07/30 06:01:29;;;;;;;1.95;0.80;;;;;;;16.15;75.62;101090.81;4860495;29;20026;-54
2022/07/30 06:03:55;;;;;;;1.77;1.10;;;;;;;16.28;75.26;101096.78;4848858;29;20038;-54
2022/07/30 06:06:21;;;;;;;1.27;0.88;;;;;;;16.13;76.15;101103.72;4841939;29;20066;-54
2022/07/30 06:08:49;;;;;;;1.75;0.60;;;;;;;16.06;76.46;101104.69;4841668;29;20487;-53
2022/07/30 06:11:15;;;;;;;2.17;0.80;;;;;;;16.18;75.99;101107.38;4842301;29;20034;-54
2022/07/30 06:13:43;;;;;;;1.02;0.60;;;;;;;16.13;75.93;101104.56;4842327;29;20073;-54
2022/07/30 06:16:09;;;;;;;3.50;0.60;;;;;;;16.16;75.85;101103.25;4841839;29;20628;-54
2022/07/30 06:18:35;;;;;;;1.10;0.60;;;;;;;16.30;75.37;101099.25;4841977;29;20432;-53
2022/07/30 06:21:02;;;;;;;1.35;0.55;;;;;;;16.17;75.57;101104.91;4841822;29;20034;-55
2022/07/30 06:23:28;;;;;;;1.05;0.50;;;;;;;16.06;75.68;101098.47;4841864;29;20033;-54
2022/07/30 06:25:54;;;;;;;1.02;0.50;;;;;;;16.07;76.05;101100.91;4841899;29;20513;-54
2022/07/30 06:28:20;;;;;;;1.20;0.70;;;;;;;16.07;76.16;101103.63;4841715;29;20090;-53
2022/07/30 06:30:47;;;;;;;1.08;0.65;;;;;;;16.13;75.98;101098.34;4841969;29;20036;-53
2022/07/30 06:33:14;;;;;;;0.93;0.50;;;;;;;16.18;75.51;101110.06;4841613;29;20026;-54
2022/07/30 06:35:41;;;;;;;0.60;0.47;;;;;;;15.94;76.52;101105.75;4842012;29;20475;-54
2022/07/30 06:38:07;;;;;;;0.57;0.40;;;;;;;15.88;76.99;101101.25;4841834;29;20038;-53
2022/07/30 06:40:34;;;;;;;1.13;0.47;;;;;;;15.86;77.40;101103.38;4841491;29;20479;-54
2022/07/30 06:43:00;;;;;;;1.50;0.70;;;;;;;15.79;77.67;101098.94;4841760;29;20038;-53
2022/07/30 06:45:26;;;;;;;0.60;0.45;;;;;;;15.78;77.86;101100.00;4841235;29;20055;-54
2022/07/30 06:47:57;;;;;;;1.55;0.57;;;;;;;15.78;77.30;101097.28;4841692;29;20026;-54
2022/07/30 06:50:24;;;;;;;0.50;0.30;;;;;;;15.80;77.10;101105.97;4841569;29;20479;-54
2022/07/30 06:52:50;;;;;;;0.60;0.40;;;;;;;15.70;77.48;101105.72;4841794;29;20058;-54
2022/07/30 06:55:17;;;;;;;0.70;0.50;;;;;;;15.72;77.77;101105.50;4841451;29;20030;-53
2022/07/30 06:57:43;;;;;;;1.23;0.38;;;;;;;15.92;77.57;101111.34;4841557;29;20033;-54
2022/07/30 07:00:10;;;;;;;0.88;0.52;;;;;;;16.02;77.01;101116.19;4841088;29;20069;-54
2022/07/30 07:02:38;;;;;;;0.90;0.50;;;;;;;15.84;77.43;101106.31;4841389;29;20499;-53
2022/07/30 07:05:04;;;;;;;0.70;0.40;;;;;;;15.75;77.51;101110.41;4841298;29;20038;-52
2022/07/30 07:07:31;;;;;;;1.30;0.60;;;;;;;15.90;76.99;101110.78;4841069;29;20495;-54
2022/07/30 07:09:57;;;;;;;1.73;0.70;;;;;;;16.05;76.75;101118.44;4850997;29;20034;-54
2022/07/30 07:12:23;;;;;;;1.55;0.50;;;;;;;16.08;76.34;101123.34;4856287;29;20029;-53
2022/07/30 07:14:49;;;;;;;1.17;0.50;;;;;;;15.86;76.90;101119.59;4841618;29;20038;-54
2022/07/30 07:17:16;;;;;;;1.35;0.50;;;;;;;15.93;76.99;101109.47;4847182;29;20048;-54
2022/07/30 07:19:43;;;;;;;0.75;0.40;;;;;;;15.95;76.76;101120.88;4859620;29;20112;-53
2022/07/30 07:22:09;;;;;;;1.00;0.52;;;;;;;16.04;76.46;101128.38;4860223;29;20037;-54
2022/07/30 07:24:35;;;;;;;1.65;0.55;;;;;;;16.10;76.66;101130.16;4859921;29;20041;-54
2022/07/30 07:27:01;;;;;;;0.52;0.40;;;;;;;16.02;76.50;101122.41;4859033;29;20037;-55
2022/07/30 07:29:27;;;;;;;0.30;0.30;;;;;;;15.94;76.54;101128.16;4858910;29;20124;-54
2022/07/30 07:31:53;;;;;;;0.82;0.43;;;;;;;15.91;76.85;101117.81;4859818;29;20116;-53
2022/07/30 07:34:20;;;;;;;0.55;0.40;;;;;;;15.98;76.81;101118.50;4859596;29;20029;-52
2022/07/30 07:36:46;;;;;;;1.13;0.77;;;;;;;15.91;77.41;101117.00;4859363;29;20044;-53
2022/07/30 07:39:12;;;;;;;0.40;0.38;;;;;;;15.87;77.16;101111.25;4859065;29;20501;-55
2022/07/30 07:41:39;;;;;;;1.33;0.60;;;;;;;15.78;77.77;101108.09;4829513;29;20026;-53
2022/07/30 07:44:05;;;;;;;1.65;0.60;;;;;;;15.79;77.42;101108.91;4822826;29;20034;-53
2022/07/30 07:46:32;;;;;;;0.50;0.35;;;;;;;15.82;77.22;101109.28;4822747;29;20191;-53
2022/07/30 07:48:58;;;;;;;0.57;0.57;;;;;;;15.83;77.78;101110.91;4822448;29;20041;-54
2022/07/30 07:51:24;;;;;;;0.45;0.30;;;;;;;16.00;77.30;101111.03;4822603;29;20037;-54
2022/07/30 07:53:50;;;;;;;1.63;0.40;;;;;;;15.86;77.52;101112.31;4822621;29;20038;-54
2022/07/30 07:56:16;;;;;;;1.63;0.40;;;;;;;15.89;77.59;101114.53;4822830;29;20034;-53
2022/07/30 07:58:42;;;;;;;0.30;0.30;;;;;;;15.82;77.86;101109.28;4822044;29;20488;-54
2022/07/30 08:01:09;;;;;;;0.68;0.30;;;;;;;15.76;77.96;101104.78;4822696;29;20034;-54
2022/07/30 08:03:35;;;;;;;0.65;0.40;;;;;;;15.90;77.54;101107.25;4822614;29;20042;-53
2022/07/30 08:06:01;;;;;;;0.65;0.28;;;;;;;15.83;77.56;101102.00;4822637;29;20034;-53
2022/07/30 08:08:27;;;;;;;0.22;0.22;;;;;;;15.82;77.25;101108.41;4822223;29;20034;-53
2022/07/30 08:10:53;;;;;;;1.08;0.47;;;;;;;15.89;76.94;101106.44;4822485;29;20476;-53
2022/07/30 08:13:20;;;;;;;0.40;0.20;;;;;;;15.83;77.04;101108.22;4820672;29;20042;-55
2022/07/30 08:15:46;;;;;;;1.83;0.35;;;;;;;15.93;77.04;101107.59;4822256;29;20034;-54
2022/07/30 08:18:12;;;;;;;1.63;0.40;;;;;;;15.88;77.05;101103.97;4835078;29;20040;-53
2022/07/30 08:20:38;;;;;;;0.88;0.32;;;;;;;15.99;76.47;101098.59;4844025;29;20048;-53
2022/07/30 08:23:06;;;;;;;0.40;0.30;;;;;;;15.87;76.76;101100.44;4844065;29;20395;-54
2022/07/30 08:25:33;;;;;;;0.77;0.25;;;;;;;15.94;76.58;101103.03;4843988;29;20030;-54
2022/07/30 08:28:01;;;;;;;0.77;0.30;;;;;;;15.87;76.47;101105.84;4843392;29;20414;-54
2022/07/30 08:30:28;;;;;;;0.60;0.30;;;;;;;15.93;76.37;101109.47;4844200;29;20078;-53
2022/07/30 08:32:54;;;;;;;1.13;0.40;;;;;;;15.82;76.97;101106.56;4843998;29;20033;-52
2022/07/30 08:35:21;;;;;;;0.85;0.40;;;;;;;15.83;77.04;101100.09;4843852;29;20090;-53
2022/07/30 08:37:47;;;;;;;0.52;0.25;;;;;;;15.84;76.87;101095.53;4843702;29;20038;-54
2022/07/30 08:40:13;;;;;;;0.47;0.30;;;;;;;16.00;76.63;101105.63;4844113;29;20034;-54
2022/07/30 08:42:40;;;;;;;1.02;0.28;;;;;;;15.88;76.99;101094.00;4832144;29;20079;-53
2022/07/30 08:45:07;;;;;;;0.50;0.20;;;;;;;15.92;76.83;101103.25;4825454;29;20034;-54
2022/07/30 08:47:35;;;;;;;0.30;0.25;;;;;;;16.02;76.24;101092.69;4825576;29;20527;-54
2022/07/30 08:50:04;;;;;;;1.23;0.20;;;;;;;15.97;76.15;101092.59;4824988;29;20042;-53
2022/07/30 08:52:37;;;;;;;0.75;0.20;;;;;;;15.97;76.38;101089.88;4825316;29;20453;-53
2022/07/30 08:55:04;;;;;;;0.30;0.20;;;;;;;15.96;76.25;101092.81;4825326;29;20042;-53
2022/07/30 08:57:33;;;;;;;0.30;0.20;;;;;;;16.00;76.42;101097.53;4824985;29;20539;-53
2022/07/30 09:00:00;;;;;;;0.30;0.20;;;;;;;15.90;76.72;101091.06;4825068;29;20038;-53
2022/07/30 09:02:29;;;;;;;0.30;0.10;;;;;;;15.94;76.54;101094.94;4809019;29;20556;-53
2022/07/30 09:04:55;;;;;;;0.10;0.10;;;;;;;16.13;76.28;101084.81;4824762;29;20059;-54
2022/07/30 09:07:21;;;;;;;0.03;0.00;;;;;;;16.06;76.26;101091.19;4824841;29;20027;-53
2022/07/30 09:09:48;;;;;;;0.15;0.10;;;;;;;15.87;76.42;101083.44;4824345;29;20083;-54
2022/07/30 09:12:44;;;;;;;0.30;0.17;;;;;;;15.81;77.07;101082.50;4826831;29;20031;-53
2022/07/30 09:15:17;;;;;;;0.17;0.17;;;;;;;15.82;76.77;101084.13;4843251;29;20026;-53
2022/07/30 09:17:48;;;;;;;0.10;0.08;;;;;;;15.82;76.48;101086.81;4843029;29;20041;-52
2022/07/30 09:20:15;;;;;;;0.47;0.28;;;;;;;15.88;76.64;101082.38;4843089;29;20048;-53
2022/07/30 09:22:44;;;;;;;0.80;0.10;;;;;;;15.82;77.00;101087.69;4843038;29;20069;-54
2022/07/30 09:25:10;;;;;;;0.15;0.10;;;;;;;15.96;77.39;101084.72;4842835;29;20034;-54
2022/07/30 09:27:48;;;;;;;0.30;0.30;;;;;;;15.95;78.25;101078.50;4842712;29;20058;-54
2022/07/30 09:30:15;;;;;;;0.65;0.25;;;;;;;15.88;77.94;101088.63;4844178;29;20420;-54
2022/07/30 09:32:53;;;;;;;0.10;0.10;;;;;;;15.72;78.45;101081.22;4861399;29;20566;-53
2022/07/30 09:35:20;;;;;;;0.65;0.32;;;;;;;15.86;78.22;101092.59;4861312;29;20086;-54
2022/07/30 09:37:46;;;;;;;0.38;0.15;;;;;;;15.98;78.41;101096.91;4861496;29;20028;-54
2022/07/30 09:40:15;;;;;;;0.40;0.15;;;;;;;15.89;78.65;101084.03;4861039;29;20037;-53
2022/07/30 09:42:42;;;;;;;0.47;0.20;;;;;;;15.83;79.34;101088.50;4854947;29;20076;-54
2022/07/30 09:45:14;;;;;;;0.60;0.20;;;;;;;15.92;78.84;101092.47;4824316;29;20451;-54
2022/07/30 09:47:49;;;;;;;1.60;0.30;;;;;;;15.91;78.52;101100.81;4824308;29;20444;-53
2022/07/30 09:50:18;;;;;;;0.35;0.10;;;;;;;15.84;77.80;101098.22;4824347;29;20392;-54
2022/07/30 09:52:46;;;;;;;0.22;0.20;;;;;;;15.72;78.08;101092.81;4824571;29;20049;-54
2022/07/30 09:55:14;;;;;;;0.90;0.20;;;;;;;15.83;78.56;101092.00;4824199;29;20034;-53
2022/07/30 09:58:01;;;;;;;0.30;0.20;;;;;;;15.71;78.91;101090.34;4841809;29;20064;-51
2022/07/30 10:00:29;;;;;;;1.15;0.20;;;;;;;15.75;79.29;101080.72;4842806;29;20038;-53
2022/07/30 10:02:55;;;;;;;0.10;0.10;;;;;;;15.70;79.25;101080.59;4842824;29;20033;-54
2022/07/30 10:05:23;;;;;;;1.13;0.10;;;;;;;15.54;79.17;101079.38;4848826;23;20061;-53
2022/07/30 10:07:55;;;;;;;0.15;0.10;;;;;;;15.57;79.08;101079.75;4842228;29;20409;-52
2022/07/30 10:10:25;;;;;;;0.30;0.10;;;;;;;15.60;78.78;101075.75;4842433;29;20037;-54
2022/07/30 10:12:59;;;;;;;0.20;0.20;;;;;;;15.66;78.45;101087.56;4835254;29;20114;-53
2022/07/30 10:15:31;;;;;;;0.20;0.20;;;;;;;15.61;78.65;101090.09;4823827;29;20042;-53
2022/07/30 10:17:58;;;;;;;0.10;0.10;;;;;;;15.45;79.42;101097.81;4823733;29;20105;-53
2022/07/30 10:20:26;;;;;;;0.20;0.20;;;;;;;15.54;79.32;101090.19;4823968;29;20548;-54
2022/07/30 10:22:52;;;;;;;1.00;0.20;;;;;;;15.52;79.54;101082.31;4823736;29;20045;-53
2022/07/30 10:25:20;;;;;;;0.50;0.20;;;;;;;15.72;78.78;101086.63;4823496;29;20026;-54
2022/07/30 10:27:48;;;;;;;0.43;0.20;;;;;;;15.56;79.79;101080.81;4823741;29;20473;-54
2022/07/30 10:30:14;;;;;;;0.57;0.20;;;;;;;15.47;79.61;101089.47;4824054;29;20057;-53
2022/07/30 10:32:40;;;;;;;0.28;0.10;;;;;;;15.37;79.89;101087.34;4823787;29;20045;-54
2022/07/30 10:35:08;;;;;;;0.50;0.30;;;;;;;15.36;79.76;101090.28;4823782;29;20033;-51
2022/07/30 10:37:37;;;;;;;0.57;0.38;;;;;;;15.48;79.57;101081.13;4823386;29;20030;-53
2022/07/30 10:40:18;;;;;;;0.13;0.10;;;;;;;15.51;79.23;101086.09;4823439;29;20453;-51
2022/07/30 10:43:14;;;;;;;0.40;0.20;;;;;;;15.50;79.79;101086.31;4823748;29;20034;-51
2022/07/30 10:45:46;;;;;;;;;;;;;;;15.29;80.35;101085.81;4823891;29;20030;-53
2022/07/30 10:48:12;;;;;;;0.38;0.10;;;;;;;15.43;79.88;101088.28;4823288;29;19977;-53
2022/07/30 10:50:56;;;;;;;0.05;0.05;;;;;;;15.44;79.91;101092.66;4823518;29;20026;-54
2022/07/30 10:53:46;;;;;;;0.22;0.20;;;;;;;15.46;79.77;101083.25;4823173;29;20426;-54
2022/07/30 10:56:14;;;;;;;0.20;0.10;;;;;;;15.61;78.95;101084.69;4823417;29;20543;-53
2022/07/30 10:59:04;;;;;;;0.17;0.17;;;;;;;15.53;79.58;101089.34;4823216;29;20095;-53
2022/07/30 11:01:49;;;;;;;0.10;0.10;;;;;;;15.51;79.80;101083.38;4823310;29;20041;-53
2022/07/30 11:04:24;;;;;;;0.40;0.22;;;;;;;15.50;79.66;101080.94;4823095;29;20113;-53
2022/07/30 11:06:51;;;;;;;0.20;0.20;;;;;;;15.48;79.83;101081.13;4822997;29;20055;-54
2022/07/30 11:09:42;;;;;;;1.10;0.10;;;;;;;15.48;79.61;101072.22;4822808;29;20481;-53
2022/07/30 11:12:09;;;;;;;3.88;0.28;;;;;;;15.43;79.55;101085.59;4823352;29;20097;-53
2022/07/30 11:14:47;;;;;;;0.30;0.13;;;;;;;15.59;79.41;101074.13;4823231;29;20030;-54
2022/07/30 11:17:18;;;;;;;0.20;0.20;;;;;;;15.50;79.30;101076.34;4823231;29;20034;-53
2022/07/30 11:20:03;;;;;;;0.22;0.20;;;;;;;15.42;79.63;101076.66;4822972;29;20023;-52
2022/07/30 11:22:37;;;;;;;0.47;0.20;;;;;;;15.40;79.98;101080.66;4822919;29;20033;-53
2022/07/30 11:25:05;;;;;;;0.47;0.30;;;;;;;15.41;79.75;101083.13;4822903;29;20038;-53
2022/07/30 11:27:45;;;;;;;0.30;0.20;;;;;;;15.59;79.95;101080.34;4822700;29;20373;-53
2022/07/30 11:30:20;;;;;;;0.20;0.17;;;;;;;15.73;79.11;101077.47;4823305;29;20248;-53
2022/07/30 11:32:53;;;;;;;0.50;0.30;;;;;;;15.54;79.75;101079.38;4823328;29;20507;-53
2022/07/30 11:35:25;;;;;;;0.52;0.25;;;;;;;15.50;79.90;101083.63;4822608;29;20043;-54